Terminal Aerodrome Forecast
Issued by NWS New Orleans/Baton Rouge, LA

Home | Current Version | Previous Version | Text Only | Print | Product List | Glossary On
Versions: 1 2 3 4 5 6 7 8 9 10 11 12 13 14 15 16 17 18 19 20 21 22 23 24 25 26 27 28 29 30
000
FTUS44 KLIX 301120
TAFNEW
TAF
KNEW 301120Z 3012/3112 14004KT P6SM SKC
     FM301500 15004KT P6SM SCT045 BKN150
     FM302300 VRB03KT P6SM BKN130
     FM311000 VRB03KT P6SM SCT015 BKN030
      TEMPO 3110/3112 BKN010=

USA.gov is the U.S. government's official web portal to all federal, state and local government web resources and services.